sensor_id;sensor_type;location;lat;lon;timestamp;pressure;altitude;pressure_sealevel;temperature;humidity
6345;BME280;3205;42.666;23.264;2023-03-03T00:00:16;94379.84;;;4.80;100.00
6345;BME280;3205;42.666;23.264;2023-03-03T00:02:43;94382.34;;;4.85;100.00
6345;BME280;3205;42.666;23.264;2023-03-03T00:05:09;94382.66;;;4.84;100.00
6345;BME280;3205;42.666;23.264;2023-03-03T00:07:42;94379.72;;;4.85;100.00
6345;BME280;3205;42.666;23.264;2023-03-03T00:10:09;94374.81;;;4.84;100.00
6345;BME280;3205;42.666;23.264;2023-03-03T00:12:45;94377.47;;;4.92;100.00
6345;BME280;3205;42.666;23.264;2023-03-03T00:15:14;94383.91;;;4.86;100.00
6345;BME280;3205;42.666;23.264;2023-03-03T00:17:40;94370.53;;;4.88;100.00
6345;BME280;3205;42.666;23.264;2023-03-03T00:20:34;94376.41;;;4.93;100.00
6345;BME280;3205;42.666;23.264;2023-03-03T00:23:16;94374.50;;;4.85;100.00
6345;BME280;3205;42.666;23.264;2023-03-03T00:25:44;94373.56;;;4.81;100.00
6345;BME280;3205;42.666;23.264;2023-03-03T00:28:24;94374.13;;;4.78;100.00
6345;BME280;3205;42.666;23.264;2023-03-03T00:30:52;94375.41;;;4.81;100.00
6345;BME280;3205;42.666;23.264;2023-03-03T00:33:25;94363.56;;;4.83;100.00
6345;BME280;3205;42.666;23.264;2023-03-03T00:36:05;94367.44;;;4.86;100.00
6345;BME280;3205;42.666;23.264;2023-03-03T00:38:35;94366.81;;;4.89;100.00
6345;BME280;3205;42.666;23.264;2023-03-03T00:41:06;94358.88;;;4.94;100.00
6345;BME280;3205;42.666;23.264;2023-03-03T00:43:36;94357.91;;;4.90;100.00
6345;BME280;3205;42.666;23.264;2023-03-03T00:46:02;94348.66;;;4.92;100.00
6345;BME280;3205;42.666;23.264;2023-03-03T00:48:30;94348.75;;;5.01;100.00
6345;BME280;3205;42.666;23.264;2023-03-03T00:50:59;94346.31;;;5.04;100.00
6345;BME280;3205;42.666;23.264;2023-03-03T00:53:27;94347.59;;;4.93;100.00
6345;BME280;3205;42.666;23.264;2023-03-03T00:55:54;94344.16;;;4.84;100.00
6345;BME280;3205;42.666;23.264;2023-03-03T00:58:21;94338.19;;;4.92;100.00
6345;BME280;3205;42.666;23.264;2023-03-03T01:00:48;94326.56;;;4.98;100.00
6345;BME280;3205;42.666;23.264;2023-03-03T01:03:16;94318.97;;;4.97;100.00
6345;BME280;3205;42.666;23.264;2023-03-03T01:05:43;94318.50;;;4.95;100.00
6345;BME280;3205;42.666;23.264;2023-03-03T01:08:10;94323.94;;;4.98;100.00
6345;BME280;3205;42.666;23.264;2023-03-03T01:10:39;94319.09;;;4.92;100.00
6345;BME280;3205;42.666;23.264;2023-03-03T01:13:06;94316.88;;;4.85;100.00
6345;BME280;3205;42.666;23.264;2023-03-03T01:15:34;94325.94;;;4.79;100.00
6345;BME280;3205;42.666;23.264;2023-03-03T01:18:00;94314.09;;;4.82;100.00
6345;BME280;3205;42.666;23.264;2023-03-03T01:20:26;94317.63;;;4.77;100.00
6345;BME280;3205;42.666;23.264;2023-03-03T01:22:52;94316.25;;;4.80;100.00
6345;BME280;3205;42.666;23.264;2023-03-03T01:25:19;94315.28;;;4.76;100.00
6345;BME280;3205;42.666;23.264;2023-03-03T01:27:45;94322.06;;;4.77;100.00
6345;BME280;3205;42.666;23.264;2023-03-03T01:30:12;94317.50;;;4.82;100.00
6345;BME280;3205;42.666;23.264;2023-03-03T01:32:38;94318.34;;;4.69;100.00
6345;BME280;3205;42.666;23.264;2023-03-03T01:35:05;94316.03;;;4.68;100.00
6345;BME280;3205;42.666;23.264;2023-03-03T01:37:34;94316.47;;;4.70;100.00
6345;BME280;3205;42.666;23.264;2023-03-03T01:40:01;94305.44;;;4.73;100.00
6345;BME280;3205;42.666;23.264;2023-03-03T01:42:29;94303.69;;;4.68;100.00
6345;BME280;3205;42.666;23.264;2023-03-03T01:45:18;94309.66;;;4.82;100.00
6345;BME280;3205;42.666;23.264;2023-03-03T01:47:50;94312.44;;;4.86;100.00
6345;BME280;3205;42.666;23.264;2023-03-03T01:50:27;94316.47;;;4.92;100.00
6345;BME280;3205;42.666;23.264;2023-03-03T01:52:57;94302.72;;;4.86;100.00
6345;BME280;3205;42.666;23.264;2023-03-03T01:55:28;94303.69;;;4.90;100.00
6345;BME280;3205;42.666;23.264;2023-03-03T01:57:59;94299.41;;;4.94;100.00
6345;BME280;3205;42.666;23.264;2023-03-03T02:00:28;94298.03;;;4.75;100.00
6345;BME280;3205;42.666;23.264;2023-03-03T02:02:55;94301.13;;;4.77;100.00
6345;BME280;3205;42.666;23.264;2023-03-03T02:05:21;94308.28;;;4.85;100.00
6345;BME280;3205;42.666;23.264;2023-03-03T02:07:47;94302.16;;;4.89;100.00
6345;BME280;3205;42.666;23.264;2023-03-03T02:10:16;94298.47;;;4.90;100.00
6345;BME280;3205;42.666;23.264;2023-03-03T02:12:45;94298.75;;;4.89;100.00
6345;BME280;3205;42.666;23.264;2023-03-03T02:15:22;94301.06;;;4.90;100.00
6345;BME280;3205;42.666;23.264;2023-03-03T02:17:51;94300.22;;;5.03;100.00
6345;BME280;3205;42.666;23.264;2023-03-03T02:20:28;94296.66;;;4.99;100.00
6345;BME280;3205;42.666;23.264;2023-03-03T02:23:00;94301.78;;;5.04;100.00
6345;BME280;3205;42.666;23.264;2023-03-03T02:25:36;94302.72;;;5.08;100.00
6345;BME280;3205;42.666;23.264;2023-03-03T02:28:06;94304.69;;;5.03;100.00
6345;BME280;3205;42.666;23.264;2023-03-03T02:30:36;94306.00;;;4.92;100.00
6345;BME280;3205;42.666;23.264;2023-03-03T02:33:06;94301.44;;;4.75;100.00
6345;BME280;3205;42.666;23.264;2023-03-03T02:35:34;94298.63;;;4.72;100.00
6345;BME280;3205;42.666;23.264;2023-03-03T02:38:14;94299.00;;;4.79;100.00
6345;BME280;3205;42.666;23.264;2023-03-03T02:40:51;94293.88;;;4.74;100.00
6345;BME280;3205;42.666;23.264;2023-03-03T02:43:22;94287.91;;;4.82;100.00
6345;BME280;3205;42.666;23.264;2023-03-03T02:45:49;94293.59;;;4.75;100.00
6345;BME280;3205;42.666;23.264;2023-03-03T02:48:15;94302.16;;;4.67;100.00
6345;BME280;3205;42.666;23.264;2023-03-03T02:50:41;94298.59;;;4.63;100.00
6345;BME280;3205;42.666;23.264;2023-03-03T02:53:07;94299.53;;;4.67;100.00
6345;BME280;3205;42.666;23.264;2023-03-03T02:55:34;94291.84;;;4.71;100.00
6345;BME280;3205;42.666;23.264;2023-03-03T02:58:00;94291.09;;;4.70;100.00
6345;BME280;3205;42.666;23.264;2023-03-03T03:00:26;94286.78;;;4.74;100.00
6345;BME280;3205;42.666;23.264;2023-03-03T03:02:53;94290.34;;;4.78;100.00
6345;BME280;3205;42.666;23.264;2023-03-03T03:05:19;94285.13;;;4.78;100.00
6345;BME280;3205;42.666;23.264;2023-03-03T03:07:45;94282.22;;;4.80;100.00
6345;BME280;3205;42.666;23.264;2023-03-03T03:10:11;94285.38;;;4.68;100.00
6345;BME280;3205;42.666;23.264;2023-03-03T03:12:37;94285.59;;;4.58;100.00
6345;BME280;3205;42.666;23.264;2023-03-03T03:15:04;94287.06;;;4.64;100.00
6345;BME280;3205;42.666;23.264;2023-03-03T03:17:31;94280.91;;;4.69;100.00
6345;BME280;3205;42.666;23.264;2023-03-03T03:19:57;94282.56;;;4.65;100.00
6345;BME280;3205;42.666;23.264;2023-03-03T03:22:23;94275.59;;;4.60;100.00
6345;BME280;3205;42.666;23.264;2023-03-03T03:24:49;94278.44;;;4.72;100.00
6345;BME280;3205;42.666;23.264;2023-03-03T03:27:15;94274.81;;;4.82;100.00
6345;BME280;3205;42.666;23.264;2023-03-03T03:29:41;94282.31;;;4.75;100.00
6345;BME280;3205;42.666;23.264;2023-03-03T03:32:07;94286.50;;;4.76;100.00
6345;BME280;3205;42.666;23.264;2023-03-03T03:34:34;94275.78;;;4.64;100.00
6345;BME280;3205;42.666;23.264;2023-03-03T03:37:00;94273.00;;;4.60;100.00
6345;BME280;3205;42.666;23.264;2023-03-03T03:39:26;94271.75;;;4.58;100.00
6345;BME280;3205;42.666;23.264;2023-03-03T03:41:52;94266.38;;;4.63;100.00
6345;BME280;3205;42.666;23.264;2023-03-03T03:44:19;94265.56;;;4.54;100.00
6345;BME280;3205;42.666;23.264;2023-03-03T03:46:45;94268.78;;;4.51;100.00
6345;BME280;3205;42.666;23.264;2023-03-03T03:49:11;94264.41;;;4.46;100.00
6345;BME280;3205;42.666;23.264;2023-03-03T03:51:38;94265.06;;;4.30;100.00
6345;BME280;3205;42.666;23.264;2023-03-03T03:54:06;94262.75;;;4.29;100.00
6345;BME280;3205;42.666;23.264;2023-03-03T03:56:35;94263.22;;;4.31;100.00
6345;BME280;3205;42.666;23.264;2023-03-03T03:59:01;94256.47;;;4.30;100.00
6345;BME280;3205;42.666;23.264;2023-03-03T04:01:28;94265.88;;;4.17;100.00
6345;BME280;3205;42.666;23.264;2023-03-03T04:03:54;94259.41;;;4.15;100.00
6345;BME280;3205;42.666;23.264;2023-03-03T04:06:20;94259.72;;;4.13;100.00
6345;BME280;3205;42.666;23.264;2023-03-03T04:08:47;94242.84;;;4.19;100.00
6345;BME280;3205;42.666;23.264;2023-03-03T04:11:13;94250.00;;;4.14;100.00
6345;BME280;3205;42.666;23.264;2023-03-03T04:13:42;94251.94;;;4.22;100.00
6345;BME280;3205;42.666;23.264;2023-03-03T04:16:08;94245.84;;;4.13;100.00
6345;BME280;3205;42.666;23.264;2023-03-03T04:18:34;94253.50;;;4.09;100.00
6345;BME280;3205;42.666;23.264;2023-03-03T04:21:00;94250.31;;;4.12;100.00
6345;BME280;3205;42.666;23.264;2023-03-03T04:23:26;94246.03;;;4.16;100.00
6345;BME280;3205;42.666;23.264;2023-03-03T04:25:53;94252.22;;;4.20;100.00
6345;BME280;3205;42.666;23.264;2023-03-03T04:28:19;94241.94;;;4.24;100.00
6345;BME280;3205;42.666;23.264;2023-03-03T04:30:46;94246.19;;;4.33;100.00
6345;BME280;3205;42.666;23.264;2023-03-03T04:33:12;94248.31;;;4.31;100.00
6345;BME280;3205;42.666;23.264;2023-03-03T04:35:38;94245.88;;;4.35;100.00
6345;BME280;3205;42.666;23.264;2023-03-03T04:38:04;94248.44;;;4.26;100.00
6345;BME280;3205;42.666;23.264;2023-03-03T04:40:31;94247.06;;;4.29;100.00
6345;BME280;3205;42.666;23.264;2023-03-03T04:42:57;94240.16;;;4.33;100.00
6345;BME280;3205;42.666;23.264;2023-03-03T04:45:23;94245.00;;;4.39;100.00
6345;BME280;3205;42.666;23.264;2023-03-03T04:47:50;94250.41;;;4.42;100.00
6345;BME280;3205;42.666;23.264;2023-03-03T04:50:16;94248.53;;;4.43;100.00
6345;BME280;3205;42.666;23.264;2023-03-03T04:52:42;94242.81;;;4.41;100.00
6345;BME280;3205;42.666;23.264;2023-03-03T04:55:09;94244.50;;;4.37;100.00
6345;BME280;3205;42.666;23.264;2023-03-03T04:57:35;94245.63;;;4.44;100.00
6345;BME280;3205;42.666;23.264;2023-03-03T05:00:02;94245.69;;;4.53;100.00
6345;BME280;3205;42.666;23.264;2023-03-03T05:02:29;94251.16;;;4.43;100.00
6345;BME280;3205;42.666;23.264;2023-03-03T05:04:55;94249.38;;;4.52;100.00
6345;BME280;3205;42.666;23.264;2023-03-03T05:07:21;94250.31;;;4.56;100.00
6345;BME280;3205;42.666;23.264;2023-03-03T05:09:49;94254.50;;;4.57;100.00
6345;BME280;3205;42.666;23.264;2023-03-03T05:12:15;94258.19;;;4.56;100.00
6345;BME280;3205;42.666;23.264;2023-03-03T05:14:41;94254.97;;;4.59;100.00
6345;BME280;3205;42.666;23.264;2023-03-03T05:17:08;94257.06;;;4.70;100.00
6345;BME280;3205;42.666;23.264;2023-03-03T05:19:34;94256.41;;;4.65;100.00
6345;BME280;3205;42.666;23.264;2023-03-03T05:22:00;94259.19;;;4.68;100.00
6345;BME280;3205;42.666;23.264;2023-03-03T05:24:26;94256.75;;;4.72;100.00
6345;BME280;3205;42.666;23.264;2023-03-03T05:26:52;94261.38;;;4.75;100.00
6345;BME280;3205;42.666;23.264;2023-03-03T05:29:18;94266.91;;;4.73;100.00
6345;BME280;3205;42.666;23.264;2023-03-03T05:31:45;94260.91;;;4.73;100.00
6345;BME280;3205;42.666;23.264;2023-03-03T05:34:11;94263.16;;;4.88;100.00
6345;BME280;3205;42.666;23.264;2023-03-03T05:36:37;94267.50;;;4.92;100.00
6345;BME280;3205;42.666;23.264;2023-03-03T05:39:03;94268.31;;;5.01;100.00
6345;BME280;3205;42.666;23.264;2023-03-03T05:41:29;94276.53;;;5.08;100.00
6345;BME280;3205;42.666;23.264;2023-03-03T05:43:57;94272.56;;;5.19;100.00
6345;BME280;3205;42.666;23.264;2023-03-03T05:46:23;94268.25;;;5.14;100.00
6345;BME280;3205;42.666;23.264;2023-03-03T05:48:49;94277.72;;;5.02;100.00
6345;BME280;3205;42.666;23.264;2023-03-03T05:51:16;94276.81;;;5.07;100.00
6345;BME280;3205;42.666;23.264;2023-03-03T05:53:42;94282.38;;;5.05;100.00
6345;BME280;3205;42.666;23.264;2023-03-03T05:56:08;94282.25;;;5.10;100.00
6345;BME280;3205;42.666;23.264;2023-03-03T05:58:34;94272.19;;;5.04;100.00
6345;BME280;3205;42.666;23.264;2023-03-03T06:01:00;94276.19;;;5.01;100.00
6345;BME280;3205;42.666;23.264;2023-03-03T06:03:27;94280.69;;;5.09;100.00
6345;BME280;3205;42.666;23.264;2023-03-03T06:05:53;94282.47;;;5.00;100.00
6345;BME280;3205;42.666;23.264;2023-03-03T06:08:20;94281.25;;;4.98;100.00
6345;BME280;3205;42.666;23.264;2023-03-03T06:10:46;94279.22;;;4.95;100.00
6345;BME280;3205;42.666;23.264;2023-03-03T06:13:12;94283.34;;;4.87;100.00
6345;BME280;3205;42.666;23.264;2023-03-03T06:15:38;94279.47;;;4.85;100.00
6345;BME280;3205;42.666;23.264;2023-03-03T06:18:05;94279.06;;;4.91;100.00
6345;BME280;3205;42.666;23.264;2023-03-03T06:20:31;94280.72;;;4.87;100.00
6345;BME280;3205;42.666;23.264;2023-03-03T06:22:57;94278.56;;;4.89;100.00
6345;BME280;3205;42.666;23.264;2023-03-03T06:25:24;94285.47;;;4.85;100.00
6345;BME280;3205;42.666;23.264;2023-03-03T06:27:51;94289.22;;;4.71;100.00
6345;BME280;3205;42.666;23.264;2023-03-03T06:30:17;94291.09;;;4.70;100.00
6345;BME280;3205;42.666;23.264;2023-03-03T06:32:43;94293.88;;;4.74;100.00
6345;BME280;3205;42.666;23.264;2023-03-03T06:35:10;94291.53;;;4.72;100.00
6345;BME280;3205;42.666;23.264;2023-03-03T06:37:36;94288.38;;;4.84;100.00
6345;BME280;3205;42.666;23.264;2023-03-03T06:40:04;94294.13;;;4.86;100.00
6345;BME280;3205;42.666;23.264;2023-03-03T06:42:31;94289.81;;;4.90;100.00
6345;BME280;3205;42.666;23.264;2023-03-03T06:44:57;94298.47;;;4.90;100.00
6345;BME280;3205;42.666;23.264;2023-03-03T06:47:23;94292.16;;;4.91;100.00
6345;BME280;3205;42.666;23.264;2023-03-03T06:49:49;94294.81;;;5.00;100.00
6345;BME280;3205;42.666;23.264;2023-03-03T06:52:18;94297.50;;;5.16;100.00
6345;BME280;3205;42.666;23.264;2023-03-03T06:54:45;94298.59;;;5.15;100.00
6345;BME280;3205;42.666;23.264;2023-03-03T06:57:17;94303.19;;;5.40;100.00
6345;BME280;3205;42.666;23.264;2023-03-03T06:59:48;94297.91;;;5.71;100.00
6345;BME280;3205;42.666;23.264;2023-03-03T07:02:17;94306.53;;;5.71;100.00
6345;BME280;3205;42.666;23.264;2023-03-03T07:04:44;94301.28;;;5.71;100.00
6345;BME280;3205;42.666;23.264;2023-03-03T07:07:16;94304.78;;;5.88;100.00
6345;BME280;3205;42.666;23.264;2023-03-03T07:09:44;94313.66;;;5.71;100.00
6345;BME280;3205;42.666;23.264;2023-03-03T07:12:12;94312.75;;;5.75;100.00
6345;BME280;3205;42.666;23.264;2023-03-03T07:14:42;94306.94;;;5.87;100.00
6345;BME280;3205;42.666;23.264;2023-03-03T07:17:14;94312.53;;;6.02;100.00
6345;BME280;3205;42.666;23.264;2023-03-03T07:19:41;94306.69;;;6.13;100.00
6345;BME280;3205;42.666;23.264;2023-03-03T07:22:14;94316.72;;;6.11;100.00
6345;BME280;3205;42.666;23.264;2023-03-03T07:24:42;94314.25;;;6.06;100.00
6345;BME280;3205;42.666;23.264;2023-03-03T07:27:13;94308.53;;;6.21;100.00
6345;BME280;3205;42.666;23.264;2023-03-03T07:29:41;94315.66;;;6.21;100.00
6345;BME280;3205;42.666;23.264;2023-03-03T07:32:21;94317.06;;;6.35;100.00
6345;BME280;3205;42.666;23.264;2023-03-03T07:34:51;94314.31;;;6.40;100.00
6345;BME280;3205;42.666;23.264;2023-03-03T07:37:25;94307.94;;;6.41;100.00
6345;BME280;3205;42.666;23.264;2023-03-03T07:39:54;94304.72;;;6.53;100.00
6345;BME280;3205;42.666;23.264;2023-03-03T07:42:21;94313.06;;;6.55;100.00
6345;BME280;3205;42.666;23.264;2023-03-03T07:44:50;94306.75;;;6.56;100.00
6345;BME280;3205;42.666;23.264;2023-03-03T07:47:20;94313.66;;;6.52;100.00
6345;BME280;3205;42.666;23.264;2023-03-03T07:49:49;94314.78;;;6.59;100.00
6345;BME280;3205;42.666;23.264;2023-03-03T07:52:27;94319.22;;;6.59;100.00
6345;BME280;3205;42.666;23.264;2023-03-03T07:54:55;94313.53;;;6.65;100.00
6345;BME280;3205;42.666;23.264;2023-03-03T07:57:24;94315.53;;;6.68;100.00
6345;BME280;3205;42.666;23.264;2023-03-03T07:59:53;94306.72;;;6.72;100.00
6345;BME280;3205;42.666;23.264;2023-03-03T08:02:39;94309.03;;;6.91;100.00
6345;BME280;3205;42.666;23.264;2023-03-03T08:05:27;94309.31;;;7.06;100.00
6345;BME280;3205;42.666;23.264;2023-03-03T08:07:57;94302.47;;;7.31;100.00
6345;BME280;3205;42.666;23.264;2023-03-03T08:10:35;94298.22;;;7.55;100.00
6345;BME280;3205;42.666;23.264;2023-03-03T08:13:12;94310.00;;;7.49;100.00
6345;BME280;3205;42.666;23.264;2023-03-03T08:15:41;94304.94;;;7.36;100.00
6345;BME280;3205;42.666;23.264;2023-03-03T08:18:18;94312.94;;;7.47;100.00
6345;BME280;3205;42.666;23.264;2023-03-03T08:20:50;94295.97;;;7.74;100.00
6345;BME280;3205;42.666;23.264;2023-03-03T08:23:17;94303.59;;;7.96;100.00
6345;BME280;3205;42.666;23.264;2023-03-03T08:25:45;94302.13;;;8.15;100.00
6345;BME280;3205;42.666;23.264;2023-03-03T08:28:11;94299.34;;;8.11;100.00
6345;BME280;3205;42.666;23.264;2023-03-03T08:30:39;94297.78;;;7.82;100.00
6345;BME280;3205;42.666;23.264;2023-03-03T08:33:05;94296.94;;;7.69;100.00
6345;BME280;3205;42.666;23.264;2023-03-03T08:35:32;94295.28;;;7.85;100.00
6345;BME280;3205;42.666;23.264;2023-03-03T08:37:59;94295.03;;;8.07;100.00
6345;BME280;3205;42.666;23.264;2023-03-03T08:40:25;94303.53;;;8.12;100.00
6345;BME280;3205;42.666;23.264;2023-03-03T08:42:51;94304.28;;;8.13;100.00
6345;BME280;3205;42.666;23.264;2023-03-03T08:45:18;94304.78;;;8.15;100.00
6345;BME280;3205;42.666;23.264;2023-03-03T08:47:45;94303.13;;;7.94;100.00
6345;BME280;3205;42.666;23.264;2023-03-03T08:50:12;94296.84;;;7.86;100.00
6345;BME280;3205;42.666;23.264;2023-03-03T08:52:39;94301.81;;;7.79;100.00
6345;BME280;3205;42.666;23.264;2023-03-03T08:55:06;94295.66;;;7.75;100.00
6345;BME280;3205;42.666;23.264;2023-03-03T08:57:32;94299.38;;;7.74;100.00
6345;BME280;3205;42.666;23.264;2023-03-03T08:59:58;94297.38;;;7.71;100.00
6345;BME280;3205;42.666;23.264;2023-03-03T09:02:24;94298.44;;;7.79;100.00
6345;BME280;3205;42.666;23.264;2023-03-03T09:04:50;94301.53;;;7.72;100.00
6345;BME280;3205;42.666;23.264;2023-03-03T09:07:17;94297.22;;;7.76;100.00
6345;BME280;3205;42.666;23.264;2023-03-03T09:09:44;94297.44;;;7.92;100.00
6345;BME280;3205;42.666;23.264;2023-03-03T09:12:14;94303.75;;;7.99;100.00
6345;BME280;3205;42.666;23.264;2023-03-03T09:14:42;94301.69;;;7.76;100.00
6345;BME280;3205;42.666;23.264;2023-03-03T09:17:21;94304.50;;;7.71;100.00
6345;BME280;3205;42.666;23.264;2023-03-03T09:19:48;94301.28;;;7.94;100.00
6345;BME280;3205;42.666;23.264;2023-03-03T09:22:19;94297.56;;;8.24;100.00
6345;BME280;3205;42.666;23.264;2023-03-03T09:24:46;94300.88;;;8.12;100.00
6345;BME280;3205;42.666;23.264;2023-03-03T09:27:18;94301.97;;;8.11;100.00
6345;BME280;3205;42.666;23.264;2023-03-03T09:29:45;94302.97;;;8.27;100.00
6345;BME280;3205;42.666;23.264;2023-03-03T09:32:23;94299.09;;;8.54;100.00
6345;BME280;3205;42.666;23.264;2023-03-03T09:34:51;94301.31;;;8.23;100.00
6345;BME280;3205;42.666;23.264;2023-03-03T09:37:20;94300.88;;;8.21;100.00
6345;BME280;3205;42.666;23.264;2023-03-03T09:39:49;94306.63;;;8.14;100.00
6345;BME280;3205;42.666;23.264;2023-03-03T09:42:52;94295.50;;;8.01;100.00
6345;BME280;3205;42.666;23.264;2023-03-03T09:45:36;94301.06;;;8.07;100.00
6345;BME280;3205;42.666;23.264;2023-03-03T09:51:09;94299.75;;;7.93;100.00
6345;BME280;3205;42.666;23.264;2023-03-03T09:53:51;94302.16;;;8.07;100.00
6345;BME280;3205;42.666;23.264;2023-03-03T09:56:24;94297.53;;;8.04;100.00
6345;BME280;3205;42.666;23.264;2023-03-03T09:59:06;94301.25;;;8.03;100.00
6345;BME280;3205;42.666;23.264;2023-03-03T10:01:49;94290.38;;;8.12;100.00
6345;BME280;3205;42.666;23.264;2023-03-03T10:04:48;94294.28;;;7.98;100.00
6345;BME280;3205;42.666;23.264;2023-03-03T10:07:27;94293.94;;;8.08;100.00
6345;BME280;3205;42.666;23.264;2023-03-03T10:10:05;94294.69;;;8.08;100.00
6345;BME280;3205;42.666;23.264;2023-03-03T10:12:38;94296.50;;;8.25;100.00
6345;BME280;3205;42.666;23.264;2023-03-03T10:15:22;94294.09;;;8.40;100.00
6345;BME280;3205;42.666;23.264;2023-03-03T10:17:51;94285.41;;;8.40;100.00
6345;BME280;3205;42.666;23.264;2023-03-03T10:20:49;94284.50;;;8.36;100.00
6345;BME280;3205;42.666;23.264;2023-03-03T10:23:23;94277.22;;;8.33;100.00
6345;BME280;3205;42.666;23.264;2023-03-03T10:26:03;94276.50;;;8.24;100.00
6345;BME280;3205;42.666;23.264;2023-03-03T10:31:38;94266.44;;;8.26;100.00
6345;BME280;3205;42.666;23.264;2023-03-03T10:34:19;94274.88;;;8.11;100.00
6345;BME280;3205;42.666;23.264;2023-03-03T10:36:54;94273.94;;;8.15;100.00
6345;BME280;3205;42.666;23.264;2023-03-03T10:39:44;94274.56;;;8.12;100.00
6345;BME280;3205;42.666;23.264;2023-03-03T10:42:24;94268.44;;;8.00;100.00
6345;BME280;3205;42.666;23.264;2023-03-03T10:45:06;94266.56;;;8.01;100.00
6345;BME280;3205;42.666;23.264;2023-03-03T10:47:52;94269.72;;;7.94;100.00
6345;BME280;3205;42.666;23.264;2023-03-03T10:50:28;94265.13;;;7.83;100.00
6345;BME280;3205;42.666;23.264;2023-03-03T10:53:04;94262.34;;;7.79;100.00
6345;BME280;3205;42.666;23.264;2023-03-03T10:55:39;94252.28;;;7.81;100.00
6345;BME280;3205;42.666;23.264;2023-03-03T10:58:21;94247.44;;;7.92;100.00
6345;BME280;3205;42.666;23.264;2023-03-03T11:00:58;94254.25;;;7.64;100.00
6345;BME280;3205;42.666;23.264;2023-03-03T11:03:41;94244.81;;;7.63;100.00
6345;BME280;3205;42.666;23.264;2023-03-03T11:06:14;94250.38;;;7.61;100.00
6345;BME280;3205;42.666;23.264;2023-03-03T11:08:45;94240.84;;;7.48;100.00
6345;BME280;3205;42.666;23.264;2023-03-03T11:11:18;94244.56;;;7.47;100.00
6345;BME280;3205;42.666;23.264;2023-03-03T11:13:52;94229.78;;;7.63;100.00
6345;BME280;3205;42.666;23.264;2023-03-03T11:16:33;94229.44;;;7.73;100.00
6345;BME280;3205;42.666;23.264;2023-03-03T11:19:12;94224.66;;;7.96;100.00
6345;BME280;3205;42.666;23.264;2023-03-03T11:21:46;94217.41;;;8.13;100.00
6345;BME280;3205;42.666;23.264;2023-03-03T11:24:29;94225.69;;;8.03;100.00
6345;BME280;3205;42.666;23.264;2023-03-03T11:27:08;94223.28;;;7.90;100.00
6345;BME280;3205;42.666;23.264;2023-03-03T11:29:51;94221.72;;;7.68;100.00
6345;BME280;3205;42.666;23.264;2023-03-03T11:32:26;94218.31;;;7.68;100.00
6345;BME280;3205;42.666;23.264;2023-03-03T11:35:02;94215.81;;;7.42;100.00
6345;BME280;3205;42.666;23.264;2023-03-03T11:37:38;94220.63;;;7.40;100.00
6345;BME280;3205;42.666;23.264;2023-03-03T11:40:14;94209.84;;;7.34;100.00
6345;BME280;3205;42.666;23.264;2023-03-03T11:42:50;94213.34;;;7.37;100.00
6345;BME280;3205;42.666;23.264;2023-03-03T11:45:21;94207.19;;;7.34;100.00
6345;BME280;3205;42.666;23.264;2023-03-03T11:47:54;94204.19;;;7.43;100.00
6345;BME280;3205;42.666;23.264;2023-03-03T11:50:26;94204.75;;;7.57;100.00
6345;BME280;3205;42.666;23.264;2023-03-03T11:53:01;94203.44;;;7.72;100.00
6345;BME280;3205;42.666;23.264;2023-03-03T11:55:34;94201.25;;;7.74;100.00
6345;BME280;3205;42.666;23.264;2023-03-03T11:58:07;94203.78;;;7.91;100.00
6345;BME280;3205;42.666;23.264;2023-03-03T12:00:40;94194.97;;;7.87;100.00
6345;BME280;3205;42.666;23.264;2023-03-03T12:03:20;94193.75;;;7.84;100.00
6345;BME280;3205;42.666;23.264;2023-03-03T12:05:56;94200.09;;;7.83;100.00
6345;BME280;3205;42.666;23.264;2023-03-03T12:08:37;94207.00;;;7.96;100.00
6345;BME280;3205;42.666;23.264;2023-03-03T12:11:12;94196.41;;;8.05;100.00
6345;BME280;3205;42.666;23.264;2023-03-03T12:13:49;94195.34;;;8.06;100.00
6345;BME280;3205;42.666;23.264;2023-03-03T12:16:23;94196.09;;;8.06;100.00
6345;BME280;3205;42.666;23.264;2023-03-03T12:19:00;94200.31;;;7.78;100.00
6345;BME280;3205;42.666;23.264;2023-03-03T12:21:42;94203.19;;;7.56;100.00
6345;BME280;3205;42.666;23.264;2023-03-03T12:24:25;94192.13;;;7.51;100.00
6345;BME280;3205;42.666;23.264;2023-03-03T12:27:05;94191.19;;;7.47;100.00
6345;BME280;3205;42.666;23.264;2023-03-03T12:29:40;94194.59;;;7.76;100.00
6345;BME280;3205;42.666;23.264;2023-03-03T12:32:19;94195.81;;;7.79;100.00
6345;BME280;3205;42.666;23.264;2023-03-03T12:34:52;94188.56;;;7.47;100.00
6345;BME280;3205;42.666;23.264;2023-03-03T12:37:28;94193.88;;;7.38;100.00
6345;BME280;3205;42.666;23.264;2023-03-03T12:40:06;94189.31;;;7.19;100.00
6345;BME280;3205;42.666;23.264;2023-03-03T12:42:47;94190.88;;;7.20;100.00
6345;BME280;3205;42.666;23.264;2023-03-03T12:45:26;94194.91;;;7.17;100.00
6345;BME280;3205;42.666;23.264;2023-03-03T12:47:59;94186.16;;;6.96;100.00
6345;BME280;3205;42.666;23.264;2023-03-03T12:50:34;94183.88;;;6.86;100.00
6345;BME280;3205;42.666;23.264;2023-03-03T12:53:08;94192.41;;;6.66;100.00
6345;BME280;3205;42.666;23.264;2023-03-03T12:55:47;94185.97;;;6.47;100.00
6345;BME280;3205;42.666;23.264;2023-03-03T12:58:30;94193.69;;;6.44;100.00
6345;BME280;3205;42.666;23.264;2023-03-03T13:01:08;94177.94;;;6.52;100.00
6345;BME280;3205;42.666;23.264;2023-03-03T13:03:41;94179.44;;;6.70;100.00
6345;BME280;3205;42.666;23.264;2023-03-03T13:06:18;94172.34;;;6.62;100.00
6345;BME280;3205;42.666;23.264;2023-03-03T13:09:00;94172.00;;;6.72;100.00
6345;BME280;3205;42.666;23.264;2023-03-03T13:11:48;94174.28;;;6.82;100.00
6345;BME280;3205;42.666;23.264;2023-03-03T13:14:25;94174.59;;;6.80;100.00
6345;BME280;3205;42.666;23.264;2023-03-03T13:17:03;94166.41;;;6.90;100.00
6345;BME280;3205;42.666;23.264;2023-03-03T13:19:38;94173.63;;;6.93;100.00
6345;BME280;3205;42.666;23.264;2023-03-03T13:22:11;94167.25;;;7.03;100.00
6345;BME280;3205;42.666;23.264;2023-03-03T13:24:44;94168.47;;;7.14;100.00
6345;BME280;3205;42.666;23.264;2023-03-03T13:27:18;94172.88;;;6.93;100.00
6345;BME280;3205;42.666;23.264;2023-03-03T13:29:55;94171.91;;;7.06;100.00
6345;BME280;3205;42.666;23.264;2023-03-03T13:32:23;94173.34;;;6.95;100.00
6345;BME280;3205;42.666;23.264;2023-03-03T13:34:56;94169.31;;;6.97;100.00